sensor_id;sensor_type;location;lat;lon;timestamp;P1;durP1;ratioP1;P2;durP2;ratioP2
9759;SDS011;4919;48.792;9.202;2022-08-19T00:01:33;19.37;;;17.57;;
9759;SDS011;4919;48.792;9.202;2022-08-19T00:04:04;19.97;;;18.03;;
9759;SDS011;4919;48.792;9.202;2022-08-19T00:06:33;18.87;;;17.17;;
9759;SDS011;4919;48.792;9.202;2022-08-19T00:09:02;19.27;;;17.33;;
9759;SDS011;4919;48.792;9.202;2022-08-19T00:11:31;18.07;;;16.37;;
9759;SDS011;4919;48.792;9.202;2022-08-19T00:13:59;19.67;;;17.73;;
9759;SDS011;4919;48.792;9.202;2022-08-19T00:16:26;18.67;;;16.87;;
9759;SDS011;4919;48.792;9.202;2022-08-19T00:18:53;17.43;;;15.77;;
9759;SDS011;4919;48.792;9.202;2022-08-19T00:21:22;17.43;;;15.83;;
9759;SDS011;4919;48.792;9.202;2022-08-19T00:23:50;18.13;;;16.53;;
9759;SDS011;4919;48.792;9.202;2022-08-19T00:26:18;18.73;;;17.03;;
9759;SDS011;4919;48.792;9.202;2022-08-19T00:28:45;19.00;;;17.20;;
9759;SDS011;4919;48.792;9.202;2022-08-19T00:31:13;18.37;;;16.67;;
9759;SDS011;4919;48.792;9.202;2022-08-19T00:33:40;19.40;;;17.60;;
9759;SDS011;4919;48.792;9.202;2022-08-19T00:36:07;19.63;;;17.93;;
9759;SDS011;4919;48.792;9.202;2022-08-19T00:38:36;18.83;;;17.20;;
9759;SDS011;4919;48.792;9.202;2022-08-19T00:41:05;21.07;;;18.87;;
9759;SDS011;4919;48.792;9.202;2022-08-19T00:43:33;20.97;;;18.97;;
9759;SDS011;4919;48.792;9.202;2022-08-19T00:46:00;21.23;;;19.23;;
9759;SDS011;4919;48.792;9.202;2022-08-19T00:48:31;21.83;;;19.70;;
9759;SDS011;4919;48.792;9.202;2022-08-19T00:50:59;22.83;;;20.73;;
9759;SDS011;4919;48.792;9.202;2022-08-19T00:53:28;21.57;;;19.37;;
9759;SDS011;4919;48.792;9.202;2022-08-19T00:55:58;21.60;;;19.53;;
9759;SDS011;4919;48.792;9.202;2022-08-19T00:58:27;23.03;;;20.87;;
9759;SDS011;4919;48.792;9.202;2022-08-19T01:00:56;22.07;;;19.97;;
9759;SDS011;4919;48.792;9.202;2022-08-19T01:03:23;22.17;;;20.07;;
9759;SDS011;4919;48.792;9.202;2022-08-19T01:05:51;22.17;;;20.10;;
9759;SDS011;4919;48.792;9.202;2022-08-19T01:08:19;22.90;;;20.77;;
9759;SDS011;4919;48.792;9.202;2022-08-19T01:10:47;23.07;;;20.87;;
9759;SDS011;4919;48.792;9.202;2022-08-19T01:13:19;24.57;;;22.07;;
9759;SDS011;4919;48.792;9.202;2022-08-19T01:15:55;25.67;;;22.97;;
9759;SDS011;4919;48.792;9.202;2022-08-19T01:18:27;24.03;;;21.60;;
9759;SDS011;4919;48.792;9.202;2022-08-19T01:20:55;26.17;;;21.97;;
9759;SDS011;4919;48.792;9.202;2022-08-19T01:23:27;25.97;;;23.10;;
9759;SDS011;4919;48.792;9.202;2022-08-19T01:26:10;27.70;;;23.37;;
9759;SDS011;4919;48.792;9.202;2022-08-19T01:28:44;27.97;;;23.67;;
9759;SDS011;4919;48.792;9.202;2022-08-19T01:31:13;29.43;;;24.10;;
9759;SDS011;4919;48.792;9.202;2022-08-19T01:33:53;31.50;;;24.10;;
9759;SDS011;4919;48.792;9.202;2022-08-19T01:39:09;28.10;;;25.10;;
9759;SDS011;4919;48.792;9.202;2022-08-19T01:41:39;30.57;;;26.63;;
9759;SDS011;4919;48.792;9.202;2022-08-19T01:44:07;26.70;;;24.00;;
9759;SDS011;4919;48.792;9.202;2022-08-19T01:46:44;26.60;;;24.07;;
9759;SDS011;4919;48.792;9.202;2022-08-19T01:49:14;26.27;;;23.63;;
9759;SDS011;4919;48.792;9.202;2022-08-19T01:51:43;26.63;;;23.93;;
9759;SDS011;4919;48.792;9.202;2022-08-19T01:54:11;27.37;;;24.47;;
9759;SDS011;4919;48.792;9.202;2022-08-19T01:56:53;28.67;;;25.63;;
9759;SDS011;4919;48.792;9.202;2022-08-19T01:59:33;28.57;;;25.47;;
9759;SDS011;4919;48.792;9.202;2022-08-19T02:02:03;28.63;;;25.07;;
9759;SDS011;4919;48.792;9.202;2022-08-19T02:04:34;28.83;;;25.93;;
9759;SDS011;4919;48.792;9.202;2022-08-19T02:07:01;28.27;;;25.27;;
9759;SDS011;4919;48.792;9.202;2022-08-19T02:09:28;27.27;;;24.40;;
9759;SDS011;4919;48.792;9.202;2022-08-19T02:11:56;29.70;;;26.50;;
9759;SDS011;4919;48.792;9.202;2022-08-19T02:14:23;28.83;;;25.90;;
9759;SDS011;4919;48.792;9.202;2022-08-19T02:16:50;30.60;;;26.67;;
9759;SDS011;4919;48.792;9.202;2022-08-19T02:19:17;26.60;;;23.87;;
9759;SDS011;4919;48.792;9.202;2022-08-19T02:21:44;27.57;;;24.63;;
9759;SDS011;4919;48.792;9.202;2022-08-19T02:24:11;26.73;;;24.07;;
9759;SDS011;4919;48.792;9.202;2022-08-19T02:26:38;26.27;;;23.53;;
9759;SDS011;4919;48.792;9.202;2022-08-19T02:29:06;27.67;;;24.77;;
9759;SDS011;4919;48.792;9.202;2022-08-19T02:31:34;28.43;;;25.60;;
9759;SDS011;4919;48.792;9.202;2022-08-19T02:34:02;31.03;;;27.83;;
9759;SDS011;4919;48.792;9.202;2022-08-19T02:36:29;31.13;;;24.83;;
9759;SDS011;4919;48.792;9.202;2022-08-19T02:38:56;29.30;;;26.00;;
9759;SDS011;4919;48.792;9.202;2022-08-19T02:41:25;27.50;;;24.63;;
9759;SDS011;4919;48.792;9.202;2022-08-19T02:43:54;30.20;;;26.27;;
9759;SDS011;4919;48.792;9.202;2022-08-19T02:46:42;30.77;;;27.50;;
9759;SDS011;4919;48.792;9.202;2022-08-19T02:49:12;37.97;;;26.73;;
9759;SDS011;4919;48.792;9.202;2022-08-19T02:51:41;28.03;;;24.97;;
9759;SDS011;4919;48.792;9.202;2022-08-19T02:54:10;29.43;;;25.43;;
9759;SDS011;4919;48.792;9.202;2022-08-19T02:56:39;28.97;;;25.70;;
9759;SDS011;4919;48.792;9.202;2022-08-19T02:59:07;28.27;;;24.70;;
9759;SDS011;4919;48.792;9.202;2022-08-19T03:01:37;28.43;;;24.27;;
9759;SDS011;4919;48.792;9.202;2022-08-19T03:04:08;26.57;;;23.77;;
9759;SDS011;4919;48.792;9.202;2022-08-19T03:06:36;27.10;;;24.23;;
9759;SDS011;4919;48.792;9.202;2022-08-19T03:09:04;27.80;;;24.30;;
9759;SDS011;4919;48.792;9.202;2022-08-19T03:11:31;29.07;;;24.90;;
9759;SDS011;4919;48.792;9.202;2022-08-19T03:13:59;30.07;;;25.23;;
9759;SDS011;4919;48.792;9.202;2022-08-19T03:16:27;29.93;;;25.13;;
9759;SDS011;4919;48.792;9.202;2022-08-19T03:18:58;26.77;;;23.77;;
9759;SDS011;4919;48.792;9.202;2022-08-19T03:21:27;25.87;;;23.13;;
9759;SDS011;4919;48.792;9.202;2022-08-19T03:23:59;26.97;;;24.17;;
9759;SDS011;4919;48.792;9.202;2022-08-19T03:26:28;27.90;;;24.67;;
9759;SDS011;4919;48.792;9.202;2022-08-19T03:28:56;28.57;;;24.60;;
9759;SDS011;4919;48.792;9.202;2022-08-19T03:31:25;41.37;;;26.63;;
9759;SDS011;4919;48.792;9.202;2022-08-19T03:34:14;28.87;;;25.73;;
9759;SDS011;4919;48.792;9.202;2022-08-19T03:36:56;28.80;;;25.83;;
9759;SDS011;4919;48.792;9.202;2022-08-19T03:39:26;31.93;;;26.77;;
9759;SDS011;4919;48.792;9.202;2022-08-19T03:41:54;30.83;;;27.40;;
9759;SDS011;4919;48.792;9.202;2022-08-19T03:44:48;33.93;;;28.27;;
9759;SDS011;4919;48.792;9.202;2022-08-19T03:47:15;35.20;;;29.80;;
9759;SDS011;4919;48.792;9.202;2022-08-19T03:49:43;36.07;;;30.00;;
9759;SDS011;4919;48.792;9.202;2022-08-19T03:52:10;32.73;;;28.67;;
9759;SDS011;4919;48.792;9.202;2022-08-19T03:54:37;33.70;;;29.07;;
9759;SDS011;4919;48.792;9.202;2022-08-19T03:57:05;44.20;;;31.10;;
9759;SDS011;4919;48.792;9.202;2022-08-19T03:59:33;30.77;;;27.50;;
9759;SDS011;4919;48.792;9.202;2022-08-19T04:02:03;31.83;;;28.37;;
9759;SDS011;4919;48.792;9.202;2022-08-19T04:04:36;37.10;;;28.83;;
9759;SDS011;4919;48.792;9.202;2022-08-19T04:07:05;31.73;;;27.53;;
9759;SDS011;4919;48.792;9.202;2022-08-19T04:09:33;30.13;;;26.97;;
9759;SDS011;4919;48.792;9.202;2022-08-19T04:12:00;32.87;;;26.93;;
9759;SDS011;4919;48.792;9.202;2022-08-19T04:14:28;37.37;;;28.43;;
9759;SDS011;4919;48.792;9.202;2022-08-19T04:16:59;32.13;;;27.77;;
9759;SDS011;4919;48.792;9.202;2022-08-19T04:19:28;29.63;;;26.03;;
9759;SDS011;4919;48.792;9.202;2022-08-19T04:21:56;30.40;;;27.00;;
9759;SDS011;4919;48.792;9.202;2022-08-19T04:24:23;29.63;;;26.43;;
9759;SDS011;4919;48.792;9.202;2022-08-19T04:26:51;32.43;;;26.63;;
9759;SDS011;4919;48.792;9.202;2022-08-19T04:29:22;33.73;;;28.43;;
9759;SDS011;4919;48.792;9.202;2022-08-19T04:31:52;33.13;;;28.23;;
9759;SDS011;4919;48.792;9.202;2022-08-19T04:34:22;30.97;;;27.30;;
9759;SDS011;4919;48.792;9.202;2022-08-19T04:36:51;29.87;;;26.83;;
9759;SDS011;4919;48.792;9.202;2022-08-19T04:39:22;28.83;;;26.03;;
9759;SDS011;4919;48.792;9.202;2022-08-19T04:42:15;29.07;;;25.97;;
9759;SDS011;4919;48.792;9.202;2022-08-19T04:45:01;28.70;;;25.70;;
9759;SDS011;4919;48.792;9.202;2022-08-19T04:47:30;28.93;;;26.03;;
9759;SDS011;4919;48.792;9.202;2022-08-19T04:50:13;29.03;;;26.10;;
9759;SDS011;4919;48.792;9.202;2022-08-19T04:52:44;28.27;;;25.50;;
9759;SDS011;4919;48.792;9.202;2022-08-19T04:55:11;31.17;;;28.03;;
9759;SDS011;4919;48.792;9.202;2022-08-19T04:57:38;29.53;;;26.60;;
9759;SDS011;4919;48.792;9.202;2022-08-19T05:00:07;30.40;;;27.20;;
9759;SDS011;4919;48.792;9.202;2022-08-19T05:02:35;29.63;;;26.67;;
9759;SDS011;4919;48.792;9.202;2022-08-19T05:05:02;28.13;;;25.37;;
9759;SDS011;4919;48.792;9.202;2022-08-19T05:07:29;29.43;;;26.53;;
9759;SDS011;4919;48.792;9.202;2022-08-19T05:09:57;28.87;;;25.40;;
9759;SDS011;4919;48.792;9.202;2022-08-19T05:12:24;28.07;;;25.27;;
9759;SDS011;4919;48.792;9.202;2022-08-19T05:14:54;27.47;;;24.77;;
9759;SDS011;4919;48.792;9.202;2022-08-19T05:17:23;28.07;;;25.27;;
9759;SDS011;4919;48.792;9.202;2022-08-19T05:19:54;27.50;;;24.80;;
9759;SDS011;4919;48.792;9.202;2022-08-19T05:23:00;26.80;;;24.27;;
9759;SDS011;4919;48.792;9.202;2022-08-19T05:25:39;24.50;;;22.30;;
9759;SDS011;4919;48.792;9.202;2022-08-19T05:28:06;23.77;;;21.67;;
9759;SDS011;4919;48.792;9.202;2022-08-19T05:30:33;24.10;;;21.70;;
9759;SDS011;4919;48.792;9.202;2022-08-19T05:33:12;22.27;;;20.17;;
9759;SDS011;4919;48.792;9.202;2022-08-19T05:35:39;22.90;;;20.70;;
9759;SDS011;4919;48.792;9.202;2022-08-19T05:38:07;23.30;;;21.00;;
9759;SDS011;4919;48.792;9.202;2022-08-19T05:40:34;22.90;;;20.90;;
9759;SDS011;4919;48.792;9.202;2022-08-19T05:43:05;22.23;;;20.20;;
9759;SDS011;4919;48.792;9.202;2022-08-19T05:45:37;21.43;;;19.43;;
9759;SDS011;4919;48.792;9.202;2022-08-19T05:48:06;22.40;;;19.63;;
9759;SDS011;4919;48.792;9.202;2022-08-19T05:50:35;21.70;;;19.60;;
9759;SDS011;4919;48.792;9.202;2022-08-19T05:53:02;21.87;;;19.77;;
9759;SDS011;4919;48.792;9.202;2022-08-19T05:55:30;22.70;;;20.57;;
9759;SDS011;4919;48.792;9.202;2022-08-19T05:57:57;22.47;;;20.47;;
9759;SDS011;4919;48.792;9.202;2022-08-19T06:00:24;23.73;;;21.50;;
9759;SDS011;4919;48.792;9.202;2022-08-19T06:02:51;22.73;;;20.73;;
9759;SDS011;4919;48.792;9.202;2022-08-19T06:05:18;21.53;;;19.43;;
9759;SDS011;4919;48.792;9.202;2022-08-19T06:07:46;22.47;;;20.57;;
9759;SDS011;4919;48.792;9.202;2022-08-19T06:10:13;21.23;;;19.10;;
9759;SDS011;4919;48.792;9.202;2022-08-19T06:12:40;21.60;;;19.60;;
9759;SDS011;4919;48.792;9.202;2022-08-19T06:15:11;21.53;;;19.63;;
9759;SDS011;4919;48.792;9.202;2022-08-19T06:17:39;21.33;;;19.40;;
9759;SDS011;4919;48.792;9.202;2022-08-19T06:20:09;21.23;;;19.17;;
9759;SDS011;4919;48.792;9.202;2022-08-19T06:22:41;21.07;;;18.97;;
9759;SDS011;4919;48.792;9.202;2022-08-19T06:25:10;22.00;;;19.80;;
9759;SDS011;4919;48.792;9.202;2022-08-19T06:27:39;21.53;;;19.63;;
9759;SDS011;4919;48.792;9.202;2022-08-19T06:30:26;21.83;;;19.83;;
9759;SDS011;4919;48.792;9.202;2022-08-19T06:32:53;21.50;;;19.47;;
9759;SDS011;4919;48.792;9.202;2022-08-19T06:35:20;21.40;;;19.33;;
9759;SDS011;4919;48.792;9.202;2022-08-19T06:37:47;20.67;;;18.87;;
9759;SDS011;4919;48.792;9.202;2022-08-19T06:40:14;20.40;;;18.57;;
9759;SDS011;4919;48.792;9.202;2022-08-19T06:42:41;20.17;;;18.27;;
9759;SDS011;4919;48.792;9.202;2022-08-19T06:45:19;21.37;;;19.47;;
9759;SDS011;4919;48.792;9.202;2022-08-19T06:47:50;21.83;;;19.73;;
9759;SDS011;4919;48.792;9.202;2022-08-19T06:50:22;21.87;;;19.93;;
9759;SDS011;4919;48.792;9.202;2022-08-19T06:52:50;21.40;;;19.40;;
9759;SDS011;4919;48.792;9.202;2022-08-19T06:55:18;21.97;;;19.87;;
9759;SDS011;4919;48.792;9.202;2022-08-19T06:57:45;22.77;;;20.47;;
9759;SDS011;4919;48.792;9.202;2022-08-19T07:00:14;23.20;;;20.93;;
9759;SDS011;4919;48.792;9.202;2022-08-19T07:02:42;21.73;;;19.83;;
9759;SDS011;4919;48.792;9.202;2022-08-19T07:05:21;21.87;;;19.87;;
9759;SDS011;4919;48.792;9.202;2022-08-19T07:07:48;22.13;;;20.13;;
9759;SDS011;4919;48.792;9.202;2022-08-19T07:10:16;22.50;;;20.57;;
9759;SDS011;4919;48.792;9.202;2022-08-19T07:12:43;22.73;;;20.63;;
9759;SDS011;4919;48.792;9.202;2022-08-19T07:15:10;22.40;;;20.27;;
9759;SDS011;4919;48.792;9.202;2022-08-19T07:17:38;21.50;;;19.57;;
9759;SDS011;4919;48.792;9.202;2022-08-19T07:20:08;21.60;;;19.70;;
9759;SDS011;4919;48.792;9.202;2022-08-19T07:22:36;22.60;;;20.57;;
9759;SDS011;4919;48.792;9.202;2022-08-19T07:25:05;22.03;;;20.00;;
9759;SDS011;4919;48.792;9.202;2022-08-19T07:27:33;21.80;;;19.60;;
9759;SDS011;4919;48.792;9.202;2022-08-19T07:30:00;20.83;;;19.03;;
9759;SDS011;4919;48.792;9.202;2022-08-19T07:32:28;20.77;;;19.00;;
9759;SDS011;4919;48.792;9.202;2022-08-19T07:34:57;22.10;;;20.10;;
9759;SDS011;4919;48.792;9.202;2022-08-19T07:37:26;20.47;;;18.57;;
9759;SDS011;4919;48.792;9.202;2022-08-19T07:39:59;21.70;;;19.80;;
9759;SDS011;4919;48.792;9.202;2022-08-19T07:42:27;22.13;;;19.97;;
9759;SDS011;4919;48.792;9.202;2022-08-19T07:44:56;19.67;;;17.97;;
9759;SDS011;4919;48.792;9.202;2022-08-19T07:47:24;21.53;;;19.70;;
9759;SDS011;4919;48.792;9.202;2022-08-19T07:50:13;21.37;;;19.43;;
9759;SDS011;4919;48.792;9.202;2022-08-19T07:52:40;19.23;;;17.57;;
9759;SDS011;4919;48.792;9.202;2022-08-19T07:55:14;20.37;;;18.47;;
9759;SDS011;4919;48.792;9.202;2022-08-19T07:58:01;20.70;;;18.63;;
9759;SDS011;4919;48.792;9.202;2022-08-19T08:00:30;19.93;;;18.23;;
9759;SDS011;4919;48.792;9.202;2022-08-19T08:02:57;20.97;;;19.17;;
9759;SDS011;4919;48.792;9.202;2022-08-19T08:05:24;20.13;;;18.23;;
9759;SDS011;4919;48.792;9.202;2022-08-19T08:08:10;20.83;;;18.93;;
9759;SDS011;4919;48.792;9.202;2022-08-19T08:10:57;20.73;;;18.87;;
9759;SDS011;4919;48.792;9.202;2022-08-19T08:13:25;20.50;;;18.70;;
9759;SDS011;4919;48.792;9.202;2022-08-19T08:15:53;21.87;;;19.97;;
9759;SDS011;4919;48.792;9.202;2022-08-19T08:18:22;21.73;;;19.47;;
9759;SDS011;4919;48.792;9.202;2022-08-19T08:20:53;21.33;;;19.43;;
9759;SDS011;4919;48.792;9.202;2022-08-19T08:23:21;21.23;;;19.33;;
9759;SDS011;4919;48.792;9.202;2022-08-19T08:25:48;21.73;;;19.87;;
9759;SDS011;4919;48.792;9.202;2022-08-19T08:28:16;22.73;;;20.67;;
9759;SDS011;4919;48.792;9.202;2022-08-19T08:30:44;21.53;;;19.53;;
9759;SDS011;4919;48.792;9.202;2022-08-19T08:33:21;23.30;;;21.20;;
9759;SDS011;4919;48.792;9.202;2022-08-19T08:36:09;24.20;;;21.93;;
9759;SDS011;4919;48.792;9.202;2022-08-19T08:38:37;21.80;;;20.00;;
9759;SDS011;4919;48.792;9.202;2022-08-19T08:43:48;21.30;;;19.30;;
9759;SDS011;4919;48.792;9.202;2022-08-19T08:46:30;22.10;;;20.07;;
9759;SDS011;4919;48.792;9.202;2022-08-19T08:54:42;23.73;;;21.50;;
9759;SDS011;4919;48.792;9.202;2022-08-19T08:57:27;22.90;;;20.73;;
9759;SDS011;4919;48.792;9.202;2022-08-19T09:00:08;23.37;;;21.17;;
9759;SDS011;4919;48.792;9.202;2022-08-19T09:02:41;22.27;;;20.33;;
9759;SDS011;4919;48.792;9.202;2022-08-19T09:05:09;24.37;;;22.27;;
9759;SDS011;4919;48.792;9.202;2022-08-19T09:08:02;23.37;;;21.30;;
9759;SDS011;4919;48.792;9.202;2022-08-19T09:10:38;22.20;;;20.20;;
9759;SDS011;4919;48.792;9.202;2022-08-19T09:16:09;22.43;;;20.43;;
9759;SDS011;4919;48.792;9.202;2022-08-19T09:18:44;23.67;;;21.57;;
9759;SDS011;4919;48.792;9.202;2022-08-19T09:21:19;23.50;;;21.40;;
9759;SDS011;4919;48.792;9.202;2022-08-19T09:23:55;24.13;;;21.90;;
9759;SDS011;4919;48.792;9.202;2022-08-19T09:26:25;23.67;;;21.57;;
9759;SDS011;4919;48.792;9.202;2022-08-19T09:29:13;23.53;;;21.43;;
9759;SDS011;4919;48.792;9.202;2022-08-19T09:31:40;22.77;;;20.63;;
9759;SDS011;4919;48.792;9.202;2022-08-19T09:34:07;24.43;;;22.20;;
9759;SDS011;4919;48.792;9.202;2022-08-19T09:36:46;23.63;;;21.43;;
9759;SDS011;4919;48.792;9.202;2022-08-19T09:39:16;24.77;;;22.57;;
9759;SDS011;4919;48.792;9.202;2022-08-19T09:41:43;23.30;;;21.27;;
9759;SDS011;4919;48.792;9.202;2022-08-19T09:44:14;24.40;;;22.20;;
9759;SDS011;4919;48.792;9.202;2022-08-19T09:46:43;24.63;;;22.43;;
9759;SDS011;4919;48.792;9.202;2022-08-19T09:49:10;25.03;;;22.60;;
9759;SDS011;4919;48.792;9.202;2022-08-19T09:51:38;25.33;;;23.07;;
9759;SDS011;4919;48.792;9.202;2022-08-19T09:54:06;24.67;;;22.30;;
9759;SDS011;4919;48.792;9.202;2022-08-19T09:56:36;23.77;;;21.53;;
9759;SDS011;4919;48.792;9.202;2022-08-19T09:59:03;23.30;;;21.30;;
9759;SDS011;4919;48.792;9.202;2022-08-19T10:01:30;23.57;;;21.47;;
9759;SDS011;4919;48.792;9.202;2022-08-19T10:03:59;23.30;;;21.23;;
9759;SDS011;4919;48.792;9.202;2022-08-19T10:06:32;23.40;;;21.27;;
9759;SDS011;4919;48.792;9.202;2022-08-19T10:09:12;23.50;;;21.30;;
9759;SDS011;4919;48.792;9.202;2022-08-19T10:11:40;22.20;;;20.23;;
9759;SDS011;4919;48.792;9.202;2022-08-19T10:14:20;23.47;;;21.20;;
9759;SDS011;4919;48.792;9.202;2022-08-19T10:16:50;21.40;;;19.50;;
9759;SDS011;4919;48.792;9.202;2022-08-19T10:19:18;21.37;;;19.67;;
9759;SDS011;4919;48.792;9.202;2022-08-19T10:21:51;20.60;;;18.80;;
9759;SDS011;4919;48.792;9.202;2022-08-19T10:24:19;21.20;;;19.07;;
9759;SDS011;4919;48.792;9.202;2022-08-19T10:26:46;21.33;;;19.53;;
9759;SDS011;4919;48.792;9.202;2022-08-19T10:29:22;21.43;;;19.47;;
9759;SDS011;4919;48.792;9.202;2022-08-19T10:32:01;21.50;;;19.60;;
9759;SDS011;4919;48.792;9.202;2022-08-19T10:34:38;20.80;;;18.90;;
9759;SDS011;4919;48.792;9.202;2022-08-19T10:37:14;21.53;;;19.73;;
9759;SDS011;4919;48.792;9.202;2022-08-19T10:39:56;21.47;;;19.57;;
9759;SDS011;4919;48.792;9.202;2022-08-19T10:42:23;20.03;;;18.23;;
9759;SDS011;4919;48.792;9.202;2022-08-19T10:44:50;20.30;;;18.40;;
9759;SDS011;4919;48.792;9.202;2022-08-19T10:47:17;19.90;;;18.13;;
9759;SDS011;4919;48.792;9.202;2022-08-19T10:49:51;19.13;;;17.43;;
9759;SDS011;4919;48.792;9.202;2022-08-19T10:52:45;20.07;;;18.27;;
9759;SDS011;4919;48.792;9.202;2022-08-19T10:55:20;21.57;;;19.50;;
9759;SDS011;4919;48.792;9.202;2022-08-19T10:58:18;20.17;;;18.37;;
9759;SDS011;4919;48.792;9.202;2022-08-19T11:00:53;21.10;;;19.20;;
9759;SDS011;4919;48.792;9.202;2022-08-19T11:03:21;21.37;;;19.23;;
9759;SDS011;4919;48.792;9.202;2022-08-19T11:08:30;20.07;;;18.20;;
9759;SDS011;4919;48.792;9.202;2022-08-19T11:10:58;20.73;;;18.83;;
9759;SDS011;4919;48.792;9.202;2022-08-19T11:13:27;21.07;;;19.00;;
9759;SDS011;4919;48.792;9.202;2022-08-19T11:16:00;20.47;;;18.50;;
9759;SDS011;4919;48.792;9.202;2022-08-19T11:18:34;19.50;;;17.67;;
9759;SDS011;4919;48.792;9.202;2022-08-19T11:23:59;19.47;;;17.87;;
9759;SDS011;4919;48.792;9.202;2022-08-19T11:26:29;18.97;;;17.17;;
9759;SDS011;4919;48.792;9.202;2022-08-19T11:28:57;18.97;;;17.27;;
9759;SDS011;4919;48.792;9.202;2022-08-19T11:31:27;18.63;;;16.97;;
9759;SDS011;4919;48.792;9.202;2022-08-19T11:34:00;18.40;;;16.80;;
9759;SDS011;4919;48.792;9.202;2022-08-19T11:36:29;18.17;;;16.43;;
9759;SDS011;4919;48.792;9.202;2022-08-19T11:38:58;18.40;;;16.70;;
9759;SDS011;4919;48.792;9.202;2022-08-19T11:41:26;19.03;;;17.30;;
9759;SDS011;4919;48.792;9.202;2022-08-19T11:43:53;19.33;;;17.53;;
9759;SDS011;4919;48.792;9.202;2022-08-19T11:46:22;18.30;;;16.80;;
9759;SDS011;4919;48.792;9.202;2022-08-19T11:48:50;17.93;;;16.43;;
9759;SDS011;4919;48.792;9.202;2022-08-19T11:51:19;18.90;;;17.10;;
9759;SDS011;4919;48.792;9.202;2022-08-19T11:53:48;18.27;;;16.63;;
9759;SDS011;4919;48.792;9.202;2022-08-19T11:56:17;16.97;;;15.53;;
9759;SDS011;4919;48.792;9.202;2022-08-19T11:58:44;16.93;;;15.40;;
9759;SDS011;4919;48.792;9.202;2022-08-19T12:01:12;17.67;;;16.17;;
9759;SDS011;4919;48.792;9.202;2022-08-19T12:03:42;16.13;;;14.73;;
9759;SDS011;4919;48.792;9.202;2022-08-19T12:06:12;15.97;;;14.57;;
9759;SDS011;4919;48.792;9.202;2022-08-19T12:08:42;16.67;;;15.07;;
9759;SDS011;4919;48.792;9.202;2022-08-19T12:11:11;15.70;;;14.20;;
9759;SDS011;4919;48.792;9.202;2022-08-19T12:13:40;16.17;;;14.67;;
9759;SDS011;4919;48.792;9.202;2022-08-19T12:16:12;14.87;;;13.63;;
9759;SDS011;4919;48.792;9.202;2022-08-19T12:18:42;14.90;;;13.50;;
9759;SDS011;4919;48.792;9.202;2022-08-19T12:21:19;14.80;;;13.50;;
9759;SDS011;4919;48.792;9.202;2022-08-19T12:23:49;13.87;;;12.67;;
9759;SDS011;4919;48.792;9.202;2022-08-19T12:26:21;14.87;;;13.43;;
9759;SDS011;4919;48.792;9.202;2022-08-19T12:28:48;15.50;;;14.13;;
9759;SDS011;4919;48.792;9.202;2022-08-19T12:31:16;15.20;;;13.87;;
9759;SDS011;4919;48.792;9.202;2022-08-19T12:33:45;14.47;;;13.10;;
9759;SDS011;4919;48.792;9.202;2022-08-19T12:36:14;14.07;;;12.73;;
9759;SDS011;4919;48.792;9.202;2022-08-19T12:38:43;14.23;;;12.90;;
9759;SDS011;4919;48.792;9.202;2022-08-19T12:41:11;13.03;;;11.87;;
9759;SDS011;4919;48.792;9.202;2022-08-19T12:43:40;12.53;;;11.33;;
9759;SDS011;4919;48.792;9.202;2022-08-19T12:46:08;12.40;;;11.30;;
9759;SDS011;4919;48.792;9.202;2022-08-19T12:48:37;12.70;;;11.60;;
9759;SDS011;4919;48.792;9.202;2022-08-19T12:51:07;11.63;;;10.67;;
9759;SDS011;4919;48.792;9.202;2022-08-19T12:53:36;12.50;;;11.40;;
9759;SDS011;4919;48.792;9.202;2022-08-19T12:56:05;11.33;;;10.43;;
9759;SDS011;4919;48.792;9.202;2022-08-19T12:58:38;12.40;;;11.30;;
9759;SDS011;4919;48.792;9.202;2022-08-19T13:01:06;11.40;;;10.27;;
9759;SDS011;4919;48.792;9.202;2022-08-19T13:03:44;11.07;;;10.17;;
9759;SDS011;4919;48.792;9.202;2022-08-19T13:06:11;11.40;;;10.37;;
9759;SDS011;4919;48.792;9.202;2022-08-19T13:08:42;11.57;;;10.57;;
9759;SDS011;4919;48.792;9.202;2022-08-19T13:11:12;11.53;;;10.43;;
9759;SDS011;4919;48.792;9.202;2022-08-19T13:13:42;11.30;;;10.30;;
9759;SDS011;4919;48.792;9.202;2022-08-19T13:16:11;12.03;;;10.93;;
9759;SDS011;4919;48.792;9.202;2022-08-19T13:18:39;11.13;;;10.23;;
9759;SDS011;4919;48.792;9.202;2022-08-19T13:21:08;11.27;;;10.23;;
9759;SDS011;4919;48.792;9.202;2022-08-19T13:23:39;11.70;;;10.60;;
9759;SDS011;4919;48.792;9.202;2022-08-19T13:26:08;11.57;;;10.67;;
9759;SDS011;4919;48.792;9.202;2022-08-19T13:28:35;11.30;;;10.37;;
9759;SDS011;4919;48.792;9.202;2022-08-19T13:31:22;10.73;;;9.83;;
9759;SDS011;4919;48.792;9.202;2022-08-19T13:34:09;10.83;;;9.93;;
9759;SDS011;4919;48.792;9.202;2022-08-19T13:36:37;10.77;;;9.87;;
9759;SDS011;4919;48.792;9.202;2022-08-19T13:39:05;11.20;;;10.03;;
9759;SDS011;4919;48.792;9.202;2022-08-19T13:41:33;10.57;;;9.53;;
9759;SDS011;4919;48.792;9.202;2022-08-19T13:44:01;10.93;;;9.93;;
9759;SDS011;4919;48.792;9.202;2022-08-19T13:46:29;11.43;;;10.37;;
9759;SDS011;4919;48.792;9.202;2022-08-19T13:48:56;11.83;;;10.80;;
9759;SDS011;4919;48.792;9.202;2022-08-19T13:51:23;12.33;;;11.33;;
9759;SDS011;4919;48.792;9.202;2022-08-19T13:53:50;11.97;;;10.97;;
9759;SDS011;4919;48.792;9.202;2022-08-19T13:56:18;12.37;;;11.37;;
9759;SDS011;4919;48.792;9.202;2022-08-19T13:58:51;14.17;;;12.83;;
9759;SDS011;4919;48.792;9.202;2022-08-19T14:01:20;21.43;;;19.43;;
9759;SDS011;4919;48.792;9.202;2022-08-19T14:03:50;21.90;;;19.90;;
9759;SDS011;4919;48.792;9.202;2022-08-19T14:06:17;21.13;;;19.23;;
9759;SDS011;4919;48.792;9.202;2022-08-19T14:08:45;20.90;;;18.90;;
9759;SDS011;4919;48.792;9.202;2022-08-19T14:11:12;19.57;;;17.87;;
9759;SDS011;4919;48.792;9.202;2022-08-19T14:13:39;18.43;;;16.73;;
9759;SDS011;4919;48.792;9.202;2022-08-19T14:16:10;17.00;;;15.47;;
9759;SDS011;4919;48.792;9.202;2022-08-19T14:18:39;16.63;;;15.07;;
9759;SDS011;4919;48.792;9.202;2022-08-19T14:21:06;17.10;;;15.50;;
9759;SDS011;4919;48.792;9.202;2022-08-19T14:23:34;16.97;;;15.47;;
9759;SDS011;4919;48.792;9.202;2022-08-19T14:26:03;16.40;;;14.93;;
9759;SDS011;4919;48.792;9.202;2022-08-19T14:28:31;15.53;;;14.13;;
9759;SDS011;4919;48.792;9.202;2022-08-19T14:30:58;16.17;;;14.77;;
9759;SDS011;4919;48.792;9.202;2022-08-19T14:33:25;14.67;;;13.30;;
9759;SDS011;4919;48.792;9.202;2022-08-19T14:35:55;14.90;;;13.60;;
9759;SDS011;4919;48.792;9.202;2022-08-19T14:38:25;14.77;;;13.47;;
9759;SDS011;4919;48.792;9.202;2022-08-19T14:41:07;14.50;;;13.20;;
9759;SDS011;4919;48.792;9.202;2022-08-19T14:43:36;13.83;;;12.63;;
9759;SDS011;4919;48.792;9.202;2022-08-19T14:46:03;13.73;;;12.53;;
9759;SDS011;4919;48.792;9.202;2022-08-19T14:48:31;13.13;;;11.83;;
9759;SDS011;4919;48.792;9.202;2022-08-19T14:50:58;13.40;;;12.10;;
9759;SDS011;4919;48.792;9.202;2022-08-19T14:53:25;13.07;;;12.00;;
9759;SDS011;4919;48.792;9.202;2022-08-19T14:55:51;13.30;;;12.10;;
9759;SDS011;4919;48.792;9.202;2022-08-19T14:58:18;12.50;;;11.47;;
9759;SDS011;4919;48.792;9.202;2022-08-19T15:00:57;12.90;;;11.80;;
9759;SDS011;4919;48.792;9.202;2022-08-19T15:03:25;12.37;;;11.17;;
9759;SDS011;4919;48.792;9.202;2022-08-19T15:05:53;14.47;;;13.17;;
9759;SDS011;4919;48.792;9.202;2022-08-19T15:08:20;14.93;;;13.63;;
9759;SDS011;4919;48.792;9.202;2022-08-19T15:10:49;16.60;;;15.20;;
9759;SDS011;4919;48.792;9.202;2022-08-19T15:13:15;16.87;;;15.37;;
9759;SDS011;4919;48.792;9.202;2022-08-19T15:15:43;17.70;;;16.10;;
9759;SDS011;4919;48.792;9.202;2022-08-19T15:18:10;18.47;;;16.67;;
9759;SDS011;4919;48.792;9.202;2022-08-19T15:20:38;17.13;;;15.53;;
9759;SDS011;4919;48.792;9.202;2022-08-19T15:23:07;17.50;;;15.90;;
9759;SDS011;4919;48.792;9.202;2022-08-19T15:25:34;17.47;;;16.00;;
9759;SDS011;4919;48.792;9.202;2022-08-19T15:28:02;18.43;;;16.80;;